Kezdőlap
METAR-TAF:

METAR-TAF

Repülőterek :

Le Mars Municipal Airport

Le Mars, Iowa, Amerikai Egyesült Államok

földrajzi szélesség: 42-46-41N, földrajzi hosszúság: 096-11-37W, magasság: 365 m

Jelenlegi meteorológiai megfigyelések

A jelentés 23 órával és 10 perccel ezelõtt készült, 08:35 UTC
Északi szél 5 kt
Hőmérséklet 19°C
Páratartalom 94%
Légköri nyomás 1015 hPa
Látótávolság: 6.4 km
Szórványos felhőzet 300 lábon
Szakadozott felhőzet 1100 lábon
Borult 7500 lábon
enyhe esõ

METAR: KLRJ 090835Z AUTO 35005KT 4SM -RA SCT003 BKN011 OVC075 19/18 A2997 RMK AO2

Idő: 02:45 (07:45 UTC)


TAF: hiányzik

Meteorológiai megfigyelések és előrejelzések több, mint 4000 repülőtéren (METAR és TAF jelentéseket).

A térképen piros és sárga pontok jelzik az elérhető meteorológiai állomásokat.

Mozgassa az egeret a pont fölött, hogy megjelenjen az állomás neve.

Azután kattintson az időjárási megfigyelések és előrejelzések megtekintéséhez.

A térkép megváltoztatása: kattintson a fekete keresztel jelölt zöld gombra ráközelítéshez, a vonallal jelölt zöld gombra távolításhoz, vagy a zöld nyilakra a szomszédos térképek eléréséhez.


METAR-TAF: